createdAt,value
2018-08-03T00:01:46.928Z,15.90
2018-08-03T00:04:15.288Z,16.02
2018-08-03T00:06:43.663Z,14.98
2018-08-03T00:09:12.054Z,14.83
2018-08-03T00:11:40.406Z,15.65
2018-08-03T00:14:08.807Z,16.10
2018-08-03T00:16:37.147Z,16.73
2018-08-03T00:19:05.263Z,14.70
2018-08-03T00:21:33.615Z,16.20
2018-08-03T00:24:02.012Z,15.80
2018-08-03T00:26:30.385Z,15.93
2018-08-03T00:28:58.782Z,16.12
2018-08-03T00:31:27.128Z,14.70
2018-08-03T00:33:55.491Z,16.05
2018-08-03T00:36:23.882Z,16.32
2018-08-03T00:38:52.278Z,15.23
2018-08-03T00:41:20.659Z,16.17
2018-08-03T00:43:49.024Z,15.35
2018-08-03T00:46:17.382Z,15.30
2018-08-03T00:48:45.796Z,15.85
2018-08-03T00:51:14.219Z,15.95
2018-08-03T00:53:42.633Z,15.23
2018-08-03T00:56:10.974Z,15.50
2018-08-03T00:58:39.343Z,15.40
2018-08-03T01:01:07.744Z,16.10
2018-08-03T01:03:36.119Z,16.25
2018-08-03T01:06:04.484Z,16.70
2018-08-03T01:08:32.851Z,17.48
2018-08-03T01:11:01.168Z,15.40
2018-08-03T01:13:29.532Z,15.83
2018-08-03T01:15:57.872Z,16.45
2018-08-03T01:18:26.259Z,15.90
2018-08-03T01:20:54.679Z,16.77
2018-08-03T01:23:23.036Z,15.88
2018-08-03T01:25:51.467Z,15.28
2018-08-03T01:28:19.887Z,15.00
2018-08-03T01:30:48.208Z,15.38
2018-08-03T01:33:16.594Z,15.13
2018-08-03T01:35:44.631Z,15.50
2018-08-03T01:38:12.991Z,15.78
2018-08-03T01:40:41.308Z,15.20
2018-08-03T01:43:09.662Z,15.93
2018-08-03T01:45:37.985Z,16.02
2018-08-03T01:48:06.356Z,16.40
2018-08-03T01:50:34.669Z,16.85
2018-08-03T01:53:03.948Z,15.50
2018-08-03T01:55:32.269Z,15.95
2018-08-03T01:58:00.617Z,16.05
2018-08-03T02:00:29.021Z,15.45
2018-08-03T02:02:57.367Z,15.60
2018-08-03T02:05:25.752Z,16.75
2018-08-03T02:07:54.103Z,15.43
2018-08-03T02:10:22.443Z,17.67
2018-08-03T02:12:50.852Z,16.82
2018-08-03T02:15:18.898Z,15.60
2018-08-03T02:17:47.275Z,16.87
2018-08-03T02:20:15.632Z,16.17
2018-08-03T02:22:43.985Z,16.48
2018-08-03T02:25:12.308Z,16.23
2018-08-03T02:27:40.696Z,16.37
2018-08-03T02:30:09.060Z,16.85
2018-08-03T02:32:37.440Z,16.20
2018-08-03T02:35:05.881Z,16.15
2018-08-03T02:37:34.260Z,17.60
2018-08-03T02:40:02.596Z,15.88
2018-08-03T02:42:30.969Z,17.25
2018-08-03T02:44:59.328Z,16.73
2018-08-03T02:47:27.685Z,16.40
2018-08-03T02:49:56.031Z,16.45
2018-08-03T02:52:24.152Z,17.12
2018-08-03T02:54:52.963Z,16.55
2018-08-03T02:57:21.323Z,16.35
2018-08-03T02:59:49.657Z,17.07
2018-08-03T03:02:18.037Z,16.60
2018-08-03T03:04:46.403Z,16.35
2018-08-03T03:07:14.504Z,16.82
2018-08-03T03:09:42.860Z,17.48
2018-08-03T03:12:11.300Z,17.80
2018-08-03T03:14:39.663Z,16.70
2018-08-03T03:17:08.031Z,16.70
2018-08-03T03:19:36.559Z,16.45
2018-08-03T03:22:04.944Z,17.62
2018-08-03T03:24:33.408Z,17.32
2018-08-03T03:27:01.744Z,17.62
2018-08-03T03:29:30.108Z,16.97
2018-08-03T03:31:58.440Z,18.50
2018-08-03T03:34:26.812Z,17.77
2018-08-03T03:36:55.150Z,17.62
2018-08-03T03:39:23.511Z,16.85
2018-08-03T03:41:51.567Z,17.75
2018-08-03T03:44:19.932Z,16.90
2018-08-03T03:46:48.280Z,17.15
2018-08-03T03:49:16.659Z,17.82
2018-08-03T03:51:44.976Z,18.48
2018-08-03T03:54:13.344Z,17.35
2018-08-03T03:56:41.694Z,17.17
2018-08-03T03:59:10.074Z,17.57
2018-08-03T04:01:38.443Z,17.95
2018-08-03T04:04:07.021Z,19.45
2018-08-03T04:06:35.349Z,19.45
2018-08-03T04:09:05.819Z,20.60
2018-08-03T04:11:34.160Z,17.50
2018-08-03T04:14:02.552Z,19.77
2018-08-03T04:16:30.612Z,19.70
2018-08-03T04:18:58.981Z,17.87
2018-08-03T04:21:27.331Z,19.95
2018-08-03T04:23:55.692Z,20.88
2018-08-03T04:26:24.020Z,19.25
2018-08-03T04:28:52.399Z,20.40
2018-08-03T04:31:20.732Z,19.45
2018-08-03T04:33:49.112Z,19.50
2018-08-03T04:36:17.451Z,19.60
2018-08-03T04:38:45.534Z,18.48
2018-08-03T04:41:13.856Z,17.73
2018-08-03T04:43:42.237Z,20.02
2018-08-03T04:46:10.591Z,19.40
2018-08-03T04:48:39.015Z,19.75
2018-08-03T04:51:07.359Z,18.32
2018-08-03T04:53:35.768Z,18.00
2018-08-03T04:56:04.147Z,17.17
2018-08-03T04:58:32.488Z,19.82
2018-08-03T05:01:00.944Z,21.00
2018-08-03T05:03:29.279Z,20.10
2018-08-03T05:05:57.682Z,19.57
2018-08-03T05:08:26.048Z,20.23
2018-08-03T05:10:54.404Z,19.95
2018-08-03T05:13:22.776Z,22.87
2018-08-03T05:15:51.144Z,21.10
2018-08-03T05:18:19.508Z,21.07
2018-08-03T05:20:47.885Z,20.05
2018-08-03T05:23:16.265Z,23.42
2018-08-03T05:25:44.633Z,21.55
2018-08-03T05:28:13.048Z,21.57
2018-08-03T05:30:41.481Z,20.17
2018-08-03T05:33:09.879Z,22.10
2018-08-03T05:35:38.233Z,23.67
2018-08-03T05:38:06.635Z,23.05
2018-08-03T05:40:35.019Z,22.10
2018-08-03T05:43:03.399Z,23.22
2018-08-03T05:45:31.821Z,23.38
2018-08-03T05:48:00.195Z,22.70
2018-08-03T05:50:28.522Z,24.45
2018-08-03T05:52:56.907Z,22.62
2018-08-03T05:55:25.255Z,23.60
2018-08-03T05:57:53.636Z,25.27
2018-08-03T06:00:21.990Z,23.30
2018-08-03T06:02:50.536Z,23.67
2018-08-03T06:05:18.900Z,22.27
2018-08-03T06:07:47.267Z,24.90
2018-08-03T06:10:15.329Z,23.80
2018-08-03T06:12:43.708Z,23.20
2018-08-03T06:15:12.426Z,26.10
2018-08-03T06:17:40.959Z,25.53
2018-08-03T06:20:11.204Z,24.47
2018-08-03T06:22:39.684Z,23.10
2018-08-03T06:25:08.576Z,23.77
2018-08-03T06:27:36.632Z,23.27
2018-08-03T06:30:06.084Z,21.50
2018-08-03T06:32:34.611Z,20.90
2018-08-03T06:35:02.992Z,21.23
2018-08-03T06:37:31.340Z,21.33
2018-08-03T06:39:59.716Z,19.90
2018-08-03T06:42:28.113Z,19.87
2018-08-03T06:44:56.452Z,19.53
2018-08-03T06:47:24.861Z,18.60
2018-08-03T06:49:53.184Z,18.70
2018-08-03T06:52:21.715Z,17.40
2018-08-03T06:54:50.065Z,20.87
2018-08-03T06:57:18.492Z,21.77
2018-08-03T06:59:46.878Z,22.80
2018-08-03T07:02:15.243Z,20.50
2018-08-03T07:04:43.576Z,17.90
2018-08-03T07:07:11.956Z,16.20
2018-08-03T07:09:40.325Z,17.67
2018-08-03T07:12:08.719Z,17.10
2018-08-03T07:14:37.110Z,16.57
2018-08-03T07:17:05.485Z,15.87
2018-08-03T07:19:33.833Z,16.93
2018-08-03T07:22:02.235Z,15.57
2018-08-03T07:24:30.331Z,17.93
2018-08-03T07:26:58.688Z,16.50
2018-08-03T07:29:27.069Z,15.47
2018-08-03T07:31:55.412Z,17.57
2018-08-03T07:34:23.793Z,16.90
2018-08-03T07:36:52.166Z,17.77
2018-08-03T07:39:20.535Z,18.10
2018-08-03T07:41:48.895Z,17.60
2018-08-03T07:44:17.309Z,17.63
2018-08-03T07:46:45.953Z,16.60
2018-08-03T07:49:14.413Z,18.80
2018-08-03T07:51:42.781Z,17.40
2018-08-03T07:54:11.158Z,18.50
2018-08-03T07:56:39.215Z,17.77
2018-08-03T07:59:07.547Z,17.23
2018-08-03T08:01:36.006Z,19.90
2018-08-03T08:04:04.336Z,17.20
2018-08-03T08:06:32.688Z,21.53
2018-08-03T08:09:01.040Z,19.43
2018-08-03T08:11:29.444Z,17.70
2018-08-03T08:13:57.796Z,19.57
2018-08-03T08:16:26.151Z,17.70
2018-08-03T08:18:54.523Z,18.40
2018-08-03T08:21:22.908Z,18.07
2018-08-03T08:23:51.003Z,17.87
2018-08-03T08:26:19.078Z,18.30
2018-08-03T08:28:47.399Z,17.80
2018-08-03T08:31:15.767Z,18.13
2018-08-03T08:33:44.100Z,17.00
2018-08-03T08:36:12.205Z,16.10
2018-08-03T08:38:40.543Z,17.63
2018-08-03T08:41:08.894Z,18.00
2018-08-03T08:43:37.336Z,16.97
2018-08-03T08:46:05.736Z,17.77
2018-08-03T08:48:34.109Z,16.07
2018-08-03T08:51:02.443Z,15.27
2018-08-03T08:53:30.807Z,16.83
2018-08-03T08:55:59.129Z,16.67
2018-08-03T08:58:27.488Z,17.60
2018-08-03T09:00:55.883Z,16.53
2018-08-03T09:03:24.211Z,16.83
2018-08-03T09:05:52.555Z,16.70
2018-08-03T09:08:21.012Z,16.00
2018-08-03T09:10:49.380Z,14.83
2018-08-03T09:13:17.514Z,13.60
2018-08-03T09:15:45.846Z,14.80
2018-08-03T09:18:14.173Z,16.60
2018-08-03T09:20:42.528Z,17.30
2018-08-03T09:23:10.851Z,16.73
2018-08-03T09:25:39.255Z,13.50
2018-08-03T09:28:07.904Z,14.70
2018-08-03T09:30:36.235Z,14.37
2018-08-03T09:33:04.599Z,13.67
2018-08-03T09:35:32.924Z,14.73
2018-08-03T09:38:01.285Z,14.07
2018-08-03T09:40:29.711Z,13.23
2018-08-03T09:42:58.123Z,13.83
2018-08-03T09:45:26.487Z,14.10
2018-08-03T09:47:54.855Z,12.90
2018-08-03T09:50:23.239Z,14.43
2018-08-03T09:52:51.619Z,13.10
2018-08-03T09:55:19.819Z,13.90
2018-08-03T09:57:48.146Z,12.93
2018-08-03T10:00:17.188Z,14.17
2018-08-03T10:02:46.244Z,12.50
2018-08-03T10:05:14.586Z,14.27
2018-08-03T10:07:42.912Z,12.93
2018-08-03T10:10:11.007Z,13.97
2018-08-03T10:12:39.333Z,14.70
2018-08-03T10:15:07.745Z,13.50
2018-08-03T10:17:35.830Z,14.47
2018-08-03T10:20:07.344Z,14.97
2018-08-03T10:22:35.937Z,14.37
2018-08-03T10:25:04.293Z,15.27
2018-08-03T10:27:32.664Z,16.40
2018-08-03T10:30:01.029Z,13.60
2018-08-03T10:32:29.440Z,14.90
2018-08-03T10:34:57.835Z,15.87
2018-08-03T10:37:26.187Z,14.90
2018-08-03T10:39:54.562Z,14.77
2018-08-03T10:42:22.917Z,15.63
2018-08-03T10:44:51.288Z,14.67
2018-08-03T10:47:19.635Z,15.47
2018-08-03T10:49:47.960Z,14.83
2018-08-03T10:52:16.315Z,14.53
2018-08-03T10:54:44.671Z,15.00
2018-08-03T10:57:13.057Z,15.80
2018-08-03T10:59:41.569Z,15.33
2018-08-03T11:02:10.368Z,15.00
2018-08-03T11:04:39.297Z,14.70
2018-08-03T11:07:07.670Z,15.17
2018-08-03T11:09:36.039Z,14.30
2018-08-03T11:12:04.867Z,14.83
2018-08-03T11:14:33.252Z,14.90
2018-08-03T11:17:01.617Z,15.40
2018-08-03T11:19:30.057Z,14.13
2018-08-03T11:21:58.492Z,13.67
2018-08-03T11:24:26.592Z,15.10
2018-08-03T11:26:54.927Z,14.70
2018-08-03T11:29:23.284Z,14.20
2018-08-03T11:31:51.648Z,15.13
2018-08-03T11:34:19.975Z,13.50
2018-08-03T11:36:48.316Z,14.43
2018-08-03T11:39:16.631Z,14.60
2018-08-03T11:41:45.005Z,13.10
2018-08-03T11:44:13.359Z,13.97
2018-08-03T11:46:41.715Z,13.30
2018-08-03T11:49:10.043Z,14.47
2018-08-03T11:51:38.219Z,14.10
2018-08-03T11:54:06.659Z,13.30
2018-08-03T11:56:35.008Z,13.43
2018-08-03T11:59:03.352Z,13.83
2018-08-03T12:01:31.715Z,14.43
2018-08-03T12:04:00.040Z,13.30
2018-08-03T12:06:28.459Z,14.10
2018-08-03T12:08:56.776Z,12.37
2018-08-03T12:11:25.195Z,11.50
2018-08-03T12:13:53.519Z,11.70
2018-08-03T12:16:21.897Z,12.60
2018-08-03T12:18:50.255Z,12.70
2018-08-03T12:21:18.621Z,12.77
2018-08-03T12:23:47.017Z,13.07
2018-08-03T12:26:15.466Z,13.27
2018-08-03T12:28:43.951Z,13.80
2018-08-03T12:31:12.321Z,12.60
2018-08-03T12:33:40.677Z,13.10
2018-08-03T12:36:08.744Z,12.40
2018-08-03T12:38:36.806Z,13.43
2018-08-03T12:41:05.139Z,13.47
2018-08-03T12:43:33.498Z,11.80
2018-08-03T12:46:02.395Z,13.73
2018-08-03T12:48:30.724Z,11.70
2018-08-03T12:50:59.091Z,12.43
2018-08-03T12:53:27.421Z,13.50
2018-08-03T12:55:55.802Z,11.90
2018-08-03T12:58:24.140Z,11.00
2018-08-03T13:00:52.464Z,11.00
2018-08-03T13:03:20.881Z,11.20
2018-08-03T13:05:49.212Z,11.80
2018-08-03T13:08:17.635Z,11.37
2018-08-03T13:10:46.107Z,11.37
2018-08-03T13:13:14.471Z,12.07
2018-08-03T13:15:42.828Z,12.13
2018-08-03T13:18:11.172Z,10.80
2018-08-03T13:20:39.550Z,12.70
2018-08-03T13:23:07.893Z,12.23
2018-08-03T13:25:36.232Z,12.80
2018-08-03T13:28:04.625Z,12.10
2018-08-03T13:30:32.948Z,12.30
2018-08-03T13:33:01.301Z,12.63
2018-08-03T13:35:29.630Z,11.17
2018-08-03T13:37:58.024Z,11.77
2018-08-03T13:40:26.367Z,11.27
2018-08-03T13:42:54.771Z,10.63
2018-08-03T13:45:22.855Z,10.87
2018-08-03T13:47:50.965Z,11.63
2018-08-03T13:50:19.413Z,13.07
2018-08-03T13:52:47.859Z,12.00
2018-08-03T13:55:16.221Z,12.47
2018-08-03T13:57:44.586Z,12.93
2018-08-03T14:00:13.791Z,11.87
2018-08-03T14:02:42.389Z,11.20
2018-08-03T14:05:11.219Z,11.90
2018-08-03T14:07:39.597Z,13.17
2018-08-03T14:10:08.599Z,11.13
2018-08-03T14:12:36.943Z,11.60
2018-08-03T14:15:06.140Z,11.43
2018-08-03T14:17:34.579Z,12.23
2018-08-03T14:20:02.952Z,11.97
2018-08-03T14:22:31.309Z,12.00
2018-08-03T14:24:59.398Z,11.80
2018-08-03T14:27:27.772Z,11.40
2018-08-03T14:29:56.127Z,11.10
2018-08-03T14:32:24.260Z,11.10
2018-08-03T14:34:52.644Z,11.27
2018-08-03T14:37:21.006Z,11.97
2018-08-03T14:39:49.374Z,11.20
2018-08-03T14:42:17.732Z,11.60
2018-08-03T14:44:46.132Z,11.07
2018-08-03T14:47:14.623Z,12.03
2018-08-03T14:49:42.963Z,11.80
2018-08-03T14:52:11.078Z,11.00
2018-08-03T14:54:39.531Z,10.40
2018-08-03T14:57:15.907Z,10.40
2018-08-03T14:59:44.285Z,11.87
2018-08-03T15:02:12.674Z,10.17
2018-08-03T15:04:41.012Z,11.20
2018-08-03T15:07:09.377Z,10.43
2018-08-03T15:09:37.747Z,11.10
2018-08-03T15:12:06.079Z,11.70
2018-08-03T15:14:34.467Z,12.23
2018-08-03T15:17:02.905Z,11.10
2018-08-03T15:19:31.330Z,11.07
2018-08-03T15:21:59.699Z,11.87
2018-08-03T15:24:28.078Z,12.13
2018-08-03T15:27:00.304Z,11.17
2018-08-03T15:29:28.688Z,11.03
2018-08-03T15:31:57.072Z,11.07
2018-08-03T15:34:25.493Z,12.23
2018-08-03T15:36:53.858Z,10.40
2018-08-03T15:39:22.196Z,10.83
2018-08-03T15:41:50.553Z,10.13
2018-08-03T15:44:18.927Z,10.30
2018-08-03T15:46:47.298Z,9.97
2018-08-03T15:49:15.643Z,10.53
2018-08-03T15:51:43.720Z,12.37
2018-08-03T15:54:12.207Z,10.87
2018-08-03T15:56:40.588Z,10.67
2018-08-03T15:59:08.964Z,11.90
2018-08-03T16:01:37.347Z,11.50
2018-08-03T16:04:05.993Z,10.87
2018-08-03T16:06:34.386Z,10.70
2018-08-03T16:09:02.836Z,11.10
2018-08-03T16:11:31.227Z,10.50
2018-08-03T16:13:59.607Z,10.30
2018-08-03T16:16:27.959Z,11.47
2018-08-03T16:18:56.371Z,11.37
2018-08-03T16:21:24.665Z,9.87
2018-08-03T16:23:53.079Z,11.47
2018-08-03T16:26:21.419Z,11.77
2018-08-03T16:28:49.828Z,10.73
2018-08-03T16:31:18.539Z,10.53
2018-08-03T16:33:46.888Z,10.60
2018-08-03T16:36:15.280Z,9.70
2018-08-03T16:38:43.649Z,10.40
2018-08-03T16:41:11.999Z,10.23
2018-08-03T16:43:40.179Z,11.40
2018-08-03T16:46:08.231Z,10.43
2018-08-03T16:48:36.851Z,11.50
2018-08-03T16:51:04.911Z,10.90
2018-08-03T16:53:33.300Z,10.27
2018-08-03T16:56:01.669Z,11.43
2018-08-03T16:58:29.745Z,11.60
2018-08-03T17:00:58.104Z,11.27
2018-08-03T17:03:26.471Z,10.10
2018-08-03T17:06:10.958Z,9.80
2018-08-03T17:08:39.070Z,10.90
2018-08-03T17:11:09.458Z,10.97
2018-08-03T17:13:37.910Z,11.30
2018-08-03T17:16:07.013Z,10.30
2018-08-03T17:18:38.283Z,10.50
2018-08-03T17:21:06.855Z,10.17
2018-08-03T17:23:35.276Z,11.10
2018-08-03T17:26:03.911Z,9.90
2018-08-03T17:28:34.147Z,10.17
2018-08-03T17:31:02.667Z,10.30
2018-08-03T17:33:31.109Z,9.80
2018-08-03T17:36:01.706Z,10.77
2018-08-03T17:38:29.993Z,10.63
2018-08-03T17:40:59.946Z,10.10
2018-08-03T17:43:28.245Z,11.20
2018-08-03T17:45:56.636Z,11.37
2018-08-03T17:48:26.253Z,10.77
2018-08-03T17:50:59.529Z,10.77
2018-08-03T17:53:27.920Z,12.70
2018-08-03T17:55:56.403Z,11.47
2018-08-03T17:58:24.823Z,10.57
2018-08-03T18:00:53.261Z,11.00
2018-08-03T18:03:22.071Z,11.80
2018-08-03T18:05:50.555Z,11.00
2018-08-03T18:08:18.927Z,11.27
2018-08-03T18:10:47.579Z,12.10
2018-08-03T18:13:16.204Z,11.07
2018-08-03T18:15:44.541Z,11.67
2018-08-03T18:18:13.013Z,12.43
2018-08-03T18:20:41.856Z,11.00
2018-08-03T18:23:10.523Z,10.43
2018-08-03T18:25:39.364Z,10.70
2018-08-03T18:28:08.355Z,10.93
2018-08-03T18:30:36.775Z,12.30
2018-08-03T18:33:05.492Z,23.17
2018-08-03T18:35:33.967Z,23.43
2018-08-03T18:38:02.307Z,17.97
2018-08-03T18:40:30.821Z,15.83
2018-08-03T18:42:58.887Z,14.60
2018-08-03T18:45:27.234Z,12.90
2018-08-03T18:47:55.368Z,12.63
2018-08-03T18:50:23.756Z,11.27
2018-08-03T18:52:52.287Z,12.57
2018-08-03T18:55:20.940Z,12.60
2018-08-03T18:57:49.308Z,11.57
2018-08-03T19:00:17.696Z,12.50
2018-08-03T19:02:46.063Z,13.20
2018-08-03T19:05:14.400Z,12.50
2018-08-03T19:07:42.769Z,12.73
2018-08-03T19:10:18.284Z,13.23
2018-08-03T19:12:46.409Z,12.20
2018-08-03T19:15:15.801Z,12.80
2018-08-03T19:17:44.157Z,12.27
2018-08-03T19:20:12.544Z,12.40
2018-08-03T19:22:40.932Z,12.60
2018-08-03T19:25:09.441Z,12.73
2018-08-03T19:27:37.879Z,13.17
2018-08-03T19:30:06.564Z,12.80
2018-08-03T19:32:34.997Z,12.33
2018-08-03T19:35:03.467Z,12.90
2018-08-03T19:37:31.923Z,13.07
2018-08-03T19:40:00.543Z,13.70
2018-08-03T19:42:28.876Z,13.63
2018-08-03T19:44:57.251Z,13.07
2018-08-03T19:47:25.657Z,14.87
2018-08-03T19:49:54.033Z,14.27
2018-08-03T19:52:22.471Z,13.80
2018-08-03T19:54:50.567Z,13.13
2018-08-03T19:57:18.928Z,13.30
2018-08-03T19:59:47.298Z,13.10
2018-08-03T20:02:15.663Z,14.57
2018-08-03T20:04:44.020Z,15.00
2018-08-03T20:07:12.365Z,14.30
2018-08-03T20:09:40.843Z,15.27
2018-08-03T20:12:09.384Z,15.13
2018-08-03T20:14:37.513Z,14.73
2018-08-03T20:17:05.976Z,13.30
2018-08-03T20:19:34.341Z,13.40
2018-08-03T20:22:02.491Z,13.20
2018-08-03T20:24:30.886Z,12.40
2018-08-03T20:26:58.950Z,12.23
2018-08-03T20:29:27.343Z,11.90
2018-08-03T20:31:55.748Z,13.10
2018-08-03T20:34:24.162Z,12.13
2018-08-03T20:36:52.509Z,13.50
2018-08-03T20:39:20.911Z,12.37
2018-08-03T20:41:49.272Z,12.00
2018-08-03T20:44:17.680Z,11.93
2018-08-03T20:46:46.055Z,12.70
2018-08-03T20:49:14.436Z,11.90
2018-08-03T20:51:42.861Z,12.50
2018-08-03T20:54:11.317Z,12.47
2018-08-03T20:56:39.731Z,12.47
2018-08-03T20:59:08.127Z,13.10
2018-08-03T21:01:36.611Z,12.37
2018-08-03T21:04:05.069Z,12.63
2018-08-03T21:06:33.519Z,11.53
2018-08-03T21:09:01.970Z,13.00
2018-08-03T21:11:30.324Z,13.80
2018-08-03T21:13:58.757Z,12.23
2018-08-03T21:16:27.149Z,13.37
2018-08-03T21:18:55.508Z,13.47
2018-08-03T21:21:23.991Z,13.67
2018-08-03T21:23:52.397Z,12.57
2018-08-03T21:26:20.768Z,14.10
2018-08-03T21:28:49.200Z,12.40
2018-08-03T21:31:17.547Z,12.70
2018-08-03T21:33:46.181Z,11.73
2018-08-03T21:36:14.889Z,12.87
2018-08-03T21:38:43.259Z,11.07
2018-08-03T21:41:11.658Z,13.50
2018-08-03T21:43:40.103Z,12.43
2018-08-03T21:46:08.624Z,11.47
2018-08-03T21:48:37.063Z,11.70
2018-08-03T21:51:05.424Z,12.20
2018-08-03T21:53:33.835Z,13.00
2018-08-03T21:56:02.291Z,11.70
2018-08-03T21:58:30.804Z,10.87
2018-08-03T22:00:59.148Z,12.03
2018-08-03T22:03:27.547Z,12.07
2018-08-03T22:05:55.903Z,11.73
2018-08-03T22:08:24.273Z,13.70
2018-08-03T22:10:52.736Z,12.00
2018-08-03T22:13:21.196Z,14.20
2018-08-03T22:15:49.566Z,11.83
2018-08-03T22:18:17.896Z,12.77
2018-08-03T22:20:46.423Z,13.50
2018-08-03T22:23:14.796Z,12.60
2018-08-03T22:25:43.187Z,14.00
2018-08-03T22:28:11.567Z,13.70
2018-08-03T22:30:40.008Z,13.10
2018-08-03T22:33:08.404Z,12.70
2018-08-03T22:35:36.727Z,12.60
2018-08-03T22:38:05.140Z,13.23
2018-08-03T22:40:33.473Z,12.90
2018-08-03T22:43:01.583Z,15.03
2018-08-03T22:45:30.067Z,14.43
2018-08-03T22:47:58.451Z,11.83
2018-08-03T22:50:26.781Z,15.10
2018-08-03T22:52:55.151Z,13.80
2018-08-03T22:55:23.503Z,12.20
2018-08-03T22:57:51.888Z,12.10
2018-08-03T23:00:20.309Z,12.47
2018-08-03T23:02:48.420Z,12.43
2018-08-03T23:05:16.767Z,12.73
2018-08-03T23:07:45.178Z,13.27
2018-08-03T23:10:13.547Z,12.40
2018-08-03T23:12:41.991Z,13.07
2018-08-03T23:15:10.372Z,13.57
2018-08-03T23:17:38.727Z,13.33
2018-08-03T23:20:07.525Z,13.07
2018-08-03T23:22:35.959Z,12.73
2018-08-03T23:25:04.310Z,13.10
2018-08-03T23:27:32.718Z,15.43
2018-08-03T23:30:01.052Z,15.07
2018-08-03T23:32:29.422Z,13.80
2018-08-03T23:34:57.752Z,14.07
2018-08-03T23:37:26.110Z,14.10
2018-08-03T23:39:54.797Z,13.70
2018-08-03T23:42:23.160Z,12.83
2018-08-03T23:44:51.224Z,12.93
2018-08-03T23:47:19.312Z,13.00
2018-08-03T23:49:47.693Z,14.37
2018-08-03T23:52:16.163Z,15.20
2018-08-03T23:54:44.520Z,15.50
2018-08-03T23:57:12.895Z,15.55
2018-08-03T23:59:41.379Z,15.05
